Avon, Minnesota
Current Conditions -  °F | °C
As of 8:12 PM on Friday 19 Dec 2014 (Local Time) from KSTC Reporting Station
Haze Haze  
Wind Chill: 22°   Ceiling: 1000
Heat Index: 31°   Visibility: 4mi
Dew Point: 26°   Wind: 12mph
Humidity: 82%   Direction: 140°SE
Pressure: 30.13"   Gusts: NA
Location:  45.61°N, 94.45°W
Report Text: KSTC 200212Z 14010KT 4SM HZ OVC010 M01/M03 A3013 RMK AO2 CIG 008V012 T10061033
Loading
Personal Weather Stations






























Interactive Weather Map New forecast layout! Learn more

10-Day Weather Forecast

Advertisements
Track Severe Weather on mobile